createdAt,value
2022-10-17T07:24:03.260Z,62.84
2022-10-17T07:25:05.120Z,61.69
2022-10-17T07:26:10.007Z,61.37
2022-10-17T07:27:12.452Z,62.20
2022-10-17T07:28:17.049Z,64.64
2022-10-17T07:29:18.722Z,62.65
2022-10-17T07:30:20.734Z,60.24
2022-10-17T07:31:22.935Z,58.98
2022-10-17T07:38:32.699Z,59.19
2022-10-17T07:39:35.598Z,58.61
2022-10-17T07:40:36.975Z,60.95
2022-10-17T07:41:38.426Z,58.45
2022-10-17T07:54:06.361Z,55.25
2022-10-17T07:55:08.467Z,53.56
2022-10-17T07:56:10.674Z,53.31
2022-10-17T07:57:12.066Z,52.59
2022-10-17T07:58:13.983Z,53.03
2022-10-17T07:59:15.663Z,53.15
2022-10-17T08:00:17.078Z,55.60
2022-10-17T08:01:19.054Z,55.67
2022-10-17T08:02:25.660Z,56.21
2022-10-17T08:03:27.023Z,53.91
2022-10-17T08:04:32.621Z,52.81
2022-10-17T08:05:34.319Z,52.63
2022-10-17T08:12:03.657Z,54.03
2022-10-17T08:13:05.156Z,54.71
2022-10-17T08:14:06.621Z,54.37
2022-10-17T08:15:09.258Z,52.82
2022-10-17T08:16:12.490Z,53.66
2022-10-17T08:17:14.081Z,52.80
2022-10-17T08:18:17.649Z,52.02
2022-10-17T08:19:18.999Z,53.06
2022-10-17T08:20:20.464Z,51.37
2022-10-17T08:21:22.159Z,49.71
2022-10-17T08:22:23.580Z,50.24
2022-10-17T08:23:25.006Z,49.23
2022-10-17T08:24:26.394Z,48.25
2022-10-17T08:25:27.778Z,47.75
2022-10-17T08:26:30.645Z,47.01
2022-10-17T08:27:35.569Z,47.52
2022-10-17T08:28:38.703Z,47.24
2022-10-17T08:29:40.950Z,46.43
2022-10-17T08:30:42.289Z,45.54
2022-10-17T08:31:48.321Z,45.58
2022-10-17T08:32:51.600Z,46.06
2022-10-17T08:33:53.054Z,45.05
2022-10-17T08:34:55.501Z,45.90
2022-10-17T08:35:59.157Z,46.10
2022-10-17T08:42:05.454Z,47.67
2022-10-17T08:43:14.461Z,47.23
2022-10-17T08:44:43.103Z,46.45
2022-10-17T08:45:47.371Z,45.41
2022-10-17T08:46:53.708Z,45.92
2022-10-17T08:48:03.076Z,45.09
2022-10-17T08:49:12.222Z,44.34
2022-10-17T08:50:44.843Z,45.54
2022-10-17T08:52:02.740Z,46.21
2022-10-17T08:53:25.825Z,46.72
2022-10-17T08:54:41.030Z,48.69
2022-10-17T08:55:50.692Z,47.95
2022-10-17T08:56:54.098Z,48.18
2022-10-17T08:57:55.520Z,47.93
2022-10-17T08:59:00.935Z,47.55
2022-10-17T09:00:02.703Z,47.59
2022-10-17T09:06:11.979Z,45.96
2022-10-17T09:07:23.840Z,45.58
2022-10-17T09:09:06.721Z,44.66
2022-10-17T09:10:33.347Z,44.38
2022-10-17T09:11:49.837Z,45.26
2022-10-17T09:13:26.812Z,46.32
2022-10-17T09:14:38.238Z,45.86
2022-10-17T09:15:53.344Z,46.45
2022-10-17T09:17:32.480Z,46.16
2022-10-17T09:18:38.896Z,47.04
2022-10-17T09:19:46.297Z,47.77
2022-10-17T09:20:56.055Z,48.63
2022-10-17T09:22:09.564Z,48.54
2022-10-17T09:23:16.450Z,48.09
2022-10-17T09:24:42.957Z,46.94
2022-10-17T09:25:55.631Z,46.11
2022-10-17T09:26:57.005Z,44.84
2022-10-17T09:28:14.273Z,44.27
2022-10-17T09:29:21.603Z,42.99
2022-10-17T09:48:53.323Z,42.52
2022-10-17T09:49:55.289Z,41.71
2022-10-17T09:51:08.234Z,40.88
2022-10-17T09:52:34.162Z,41.91
2022-10-17T09:53:42.232Z,43.56
2022-10-17T10:06:15.449Z,43.58
2022-10-17T10:07:18.095Z,43.43
2022-10-17T10:08:19.960Z,44.23
2022-10-17T10:09:30.097Z,43.53
2022-10-17T10:10:32.689Z,43.83
2022-10-17T10:11:52.454Z,43.67
2022-10-17T10:13:17.504Z,43.36
2022-10-17T10:14:39.548Z,42.48
2022-10-17T10:15:44.631Z,42.15
2022-10-17T10:16:47.271Z,42.52
2022-10-17T10:17:48.897Z,43.52
2022-10-17T10:18:51.855Z,43.68
2022-10-17T10:19:54.154Z,41.77
2022-10-17T10:21:06.445Z,40.91
2022-10-17T10:22:26.137Z,40.25
2022-10-17T10:23:27.844Z,41.65
2022-10-17T10:24:31.209Z,40.94
2022-10-17T10:25:33.536Z,40.39
2022-10-17T10:26:47.212Z,42.93
2022-10-17T10:27:48.667Z,40.50
2022-10-17T10:28:58.158Z,39.80
2022-10-17T10:29:59.576Z,40.16
2022-10-17T10:42:27.767Z,39.40
2022-10-17T10:43:34.100Z,40.63
2022-10-17T10:44:38.165Z,39.73
2022-10-17T10:45:48.055Z,40.25
2022-10-17T10:47:16.977Z,38.99
2022-10-17T10:48:22.532Z,39.69
2022-10-17T10:49:32.212Z,39.20
2022-10-17T10:50:47.324Z,38.08
2022-10-17T10:51:49.848Z,38.58
2022-10-17T10:53:30.759Z,37.93
2022-10-17T11:00:02.703Z,38.02
2022-10-17T11:01:16.475Z,39.89
2022-10-17T11:02:32.715Z,40.27
2022-10-17T11:03:42.724Z,38.67
2022-10-17T11:05:00.407Z,39.23
2022-10-17T11:12:50.306Z,39.29
2022-10-17T11:14:03.597Z,39.80
2022-10-17T11:15:23.257Z,39.97
2022-10-17T11:16:40.229Z,39.75
2022-10-17T11:48:10.305Z,38.56
2022-10-17T11:49:20.083Z,37.77
2022-10-17T11:52:44.335Z,37.74
2022-10-17T11:53:55.981Z,38.05
2022-10-17T11:55:11.196Z,39.22
2022-10-17T11:56:14.976Z,40.49
2022-10-17T11:57:37.293Z,38.62
2022-10-17T11:58:46.372Z,37.98
2022-10-17T12:00:18.718Z,37.80
2022-10-17T12:01:54.974Z,37.18
2022-10-17T12:03:33.872Z,37.67
2022-10-17T12:05:07.835Z,36.63
2022-10-17T12:06:12.253Z,36.05
2022-10-17T12:07:48.641Z,36.30
2022-10-17T12:09:01.506Z,36.26
2022-10-17T12:10:30.113Z,36.98
2022-10-17T12:12:02.449Z,36.70
2022-10-17T12:13:28.826Z,37.22
2022-10-17T12:14:36.356Z,39.40
2022-10-17T12:15:37.757Z,37.78
2022-10-17T12:16:44.066Z,39.48
2022-10-17T12:17:58.265Z,38.17
2022-10-17T12:19:02.503Z,36.94
2022-10-17T12:20:25.209Z,38.23
2022-10-17T12:21:31.294Z,36.95
2022-10-17T12:22:33.824Z,37.51
2022-10-17T12:23:41.936Z,39.19
2022-10-17T12:24:45.667Z,39.41
2022-10-17T12:25:53.721Z,38.46
2022-10-17T12:26:57.109Z,38.71
2022-10-17T12:28:37.278Z,36.50
2022-10-17T12:29:42.775Z,36.49
2022-10-17T12:36:02.627Z,35.48
2022-10-17T12:37:04.803Z,37.86
2022-10-17T12:38:18.383Z,39.03
2022-10-17T12:39:45.303Z,38.46
2022-10-17T12:40:49.997Z,37.38
2022-10-17T12:41:51.340Z,36.59
2022-10-17T12:54:15.940Z,37.11
2022-10-17T12:55:19.104Z,37.59
2022-10-17T12:56:30.333Z,38.95
2022-10-17T12:57:48.504Z,38.17
2022-10-17T12:58:51.854Z,37.85
2022-10-17T12:59:56.680Z,37.61
2022-10-17T13:01:23.263Z,37.35
2022-10-17T13:02:27.068Z,37.89
2022-10-17T13:03:32.638Z,36.61
2022-10-17T13:04:36.787Z,36.28
2022-10-17T13:05:42.213Z,36.96
2022-10-17T13:12:06.264Z,36.83
2022-10-17T13:13:18.608Z,36.74
2022-10-17T13:14:23.045Z,37.30
2022-10-17T13:15:28.843Z,36.48
2022-10-17T13:16:35.991Z,36.41
2022-10-17T13:17:40.699Z,37.98
2022-10-17T13:18:53.223Z,37.42
2022-10-17T13:19:55.521Z,37.08
2022-10-17T13:21:03.363Z,37.46
2022-10-17T13:22:15.319Z,37.18
2022-10-17T13:23:24.544Z,36.89
2022-10-17T13:24:34.833Z,36.56
2022-10-17T13:25:38.912Z,37.21
2022-10-17T13:26:46.002Z,38.56
2022-10-17T13:27:49.214Z,37.25
2022-10-17T13:29:02.770Z,37.71
2022-10-17T13:30:32.158Z,38.24
2022-10-17T13:31:37.357Z,38.58
2022-10-17T13:32:39.701Z,38.23
2022-10-17T13:33:42.211Z,38.52
2022-10-17T13:34:43.698Z,38.61
2022-10-17T13:47:06.553Z,38.75
2022-10-17T13:48:22.985Z,39.84
2022-10-17T13:49:34.516Z,40.41
2022-10-17T13:50:45.239Z,40.89
2022-10-17T13:51:49.831Z,40.37
2022-10-17T13:53:17.498Z,40.18
2022-10-17T13:54:40.542Z,40.86
2022-10-17T13:56:27.930Z,41.46
2022-10-17T13:57:31.922Z,41.26
2022-10-17T13:58:41.170Z,40.97
2022-10-17T13:59:44.229Z,41.21
2022-10-17T14:00:49.106Z,40.20
2022-10-17T14:01:52.113Z,40.29
2022-10-17T14:02:53.562Z,39.83
2022-10-17T14:04:07.752Z,40.10
2022-10-17T14:05:20.396Z,40.31
2022-10-17T14:06:30.859Z,40.67
2022-10-17T14:08:09.175Z,41.05
2022-10-17T14:09:05.234Z,40.99
2022-10-17T14:10:22.459Z,40.33
2022-10-17T14:11:37.427Z,40.61
2022-10-17T14:12:42.755Z,40.29
2022-10-17T14:13:49.336Z,40.46
2022-10-17T14:15:10.731Z,41.07
2022-10-17T14:16:15.844Z,40.27
2022-10-17T14:23:22.894Z,38.20
2022-10-17T14:24:29.994Z,37.35
2022-10-17T14:25:36.964Z,38.03
2022-10-17T14:26:50.837Z,37.85
2022-10-17T14:28:03.962Z,38.29
2022-10-17T14:29:21.666Z,38.04
2022-10-17T14:30:51.595Z,37.14
2022-10-17T14:31:50.539Z,37.35
2022-10-17T14:33:01.620Z,36.78
2022-10-17T14:34:04.533Z,37.26
2022-10-17T14:35:30.305Z,37.89
2022-10-17T14:36:40.111Z,38.65
2022-10-17T14:37:45.355Z,38.58
2022-10-17T14:38:52.070Z,38.54
2022-10-17T14:39:58.797Z,38.11
2022-10-17T14:42:27.532Z,38.65
2022-10-17T14:43:31.164Z,38.26
2022-10-17T14:44:35.363Z,38.89
2022-10-17T14:45:39.624Z,38.50
2022-10-17T14:46:48.429Z,39.08
2022-10-17T14:47:53.919Z,38.81
2022-10-17T14:49:02.133Z,38.65
2022-10-17T14:50:20.218Z,38.89
2022-10-17T14:51:22.036Z,38.50
2022-10-17T14:52:28.920Z,38.56
2022-10-17T14:53:30.856Z,38.09
2022-10-17T14:54:35.561Z,38.68
2022-10-17T14:55:53.926Z,39.15
2022-10-17T14:56:55.919Z,39.01
2022-10-17T14:57:57.868Z,38.72
2022-10-17T14:58:59.302Z,39.09
2022-10-17T15:00:00.883Z,39.50
2022-10-17T15:01:02.359Z,40.03
2022-10-17T15:02:03.683Z,40.49
2022-10-17T15:03:05.120Z,40.49
2022-10-17T15:04:10.662Z,40.51
2022-10-17T15:05:13.671Z,39.85
2022-10-17T15:06:31.166Z,40.18
2022-10-17T15:07:32.532Z,39.28
2022-10-17T15:08:33.938Z,38.86
2022-10-17T15:09:35.309Z,39.06
2022-10-17T15:10:37.586Z,39.70
2022-10-17T15:17:02.562Z,39.55
2022-10-17T15:18:04.289Z,40.38
2022-10-17T15:19:05.681Z,40.61
2022-10-17T15:20:14.767Z,41.56
2022-10-17T15:21:26.509Z,41.77
2022-10-17T15:22:38.874Z,42.28
2022-10-17T15:23:42.534Z,42.15
2022-10-17T15:24:46.372Z,41.87
2022-10-17T15:25:47.767Z,42.25
2022-10-17T15:26:49.481Z,42.96
2022-10-17T15:27:51.369Z,42.65
2022-10-17T15:34:04.621Z,42.06
2022-10-17T15:35:06.675Z,42.33
2022-10-17T15:36:40.172Z,43.18
2022-10-17T15:37:43.069Z,44.06
2022-10-17T15:38:48.014Z,45.38
2022-10-17T15:39:54.835Z,45.60
2022-10-17T15:40:56.397Z,46.24
2022-10-17T15:41:58.881Z,46.67
2022-10-17T15:43:00.256Z,47.23
2022-10-17T15:44:05.209Z,47.11
2022-10-17T15:46:17.530Z,47.91
2022-10-17T15:47:28.238Z,48.46
2022-10-17T15:48:31.645Z,48.37
2022-10-17T15:49:34.613Z,48.15
2022-10-17T15:50:35.981Z,48.47
2022-10-17T15:51:37.489Z,48.55
2022-10-17T15:52:38.829Z,48.87
2022-10-17T15:53:40.801Z,49.78
2022-10-17T15:54:42.225Z,49.20
2022-10-17T15:55:43.722Z,49.21
2022-10-17T15:56:52.877Z,50.82
2022-10-17T15:57:54.292Z,51.18
2022-10-17T15:59:00.649Z,51.36
2022-10-17T16:00:02.080Z,51.65
2022-10-17T16:01:05.086Z,53.09
2022-10-17T16:02:14.395Z,54.63
2022-10-17T16:03:15.858Z,54.03
2022-10-17T16:04:21.596Z,53.89
2022-10-17T16:05:29.058Z,53.61
2022-10-17T16:06:30.398Z,53.76
2022-10-17T16:07:31.968Z,55.02
2022-10-17T16:08:33.522Z,55.00
2022-10-17T16:09:37.346Z,55.72
2022-10-17T16:10:40.363Z,56.24
2022-10-17T16:11:43.828Z,57.65
2022-10-17T16:12:45.749Z,55.93
2022-10-17T16:13:52.679Z,56.95
2022-10-17T16:14:54.053Z,56.09
2022-10-17T16:15:58.613Z,56.56
2022-10-17T16:17:00.260Z,58.26
2022-10-17T16:18:04.407Z,57.01
2022-10-17T16:19:08.993Z,57.33
2022-10-17T16:20:12.272Z,58.45
2022-10-17T16:21:15.667Z,58.61
2022-10-17T16:22:27.362Z,58.45
2022-10-17T16:23:28.921Z,59.58
2022-10-17T16:24:30.289Z,60.06
2022-10-17T16:25:32.523Z,59.19
2022-10-17T16:26:33.856Z,60.06
2022-10-17T16:27:38.236Z,60.35
2022-10-17T16:40:04.441Z,62.58
2022-10-17T16:41:19.001Z,63.38
2022-10-17T16:42:20.993Z,63.04
2022-10-17T16:43:22.353Z,62.70
2022-10-17T16:44:23.762Z,61.81
2022-10-17T16:45:25.170Z,62.28
2022-10-17T16:46:28.317Z,62.46
2022-10-17T16:47:29.735Z,62.31
2022-10-17T16:48:31.147Z,62.05
2022-10-17T16:49:40.320Z,63.30
2022-10-17T16:50:44.582Z,63.45
2022-10-17T16:51:45.955Z,63.73
2022-10-17T16:52:47.512Z,64.62
2022-10-17T16:53:50.819Z,64.47
2022-10-17T16:54:56.072Z,64.54
2022-10-17T16:56:04.925Z,65.12
2022-10-17T16:57:06.416Z,65.14
2022-10-17T16:58:08.068Z,65.72
2022-10-17T16:59:11.530Z,65.31
2022-10-17T17:00:15.210Z,65.49
2022-10-17T17:01:20.035Z,65.93
2022-10-17T17:02:21.634Z,65.30
2022-10-17T17:03:23.225Z,66.13
2022-10-17T17:04:24.702Z,66.05
2022-10-17T17:05:26.141Z,66.41
2022-10-17T17:06:29.082Z,65.90
2022-10-17T17:07:30.959Z,66.07
2022-10-17T17:08:33.853Z,66.44
2022-10-17T17:09:35.193Z,66.66
2022-10-17T17:10:36.517Z,66.46
2022-10-17T17:11:38.648Z,66.45
2022-10-17T17:12:40.011Z,66.70
2022-10-17T17:13:41.912Z,67.17
2022-10-17T17:14:43.285Z,66.95
2022-10-17T17:16:51.951Z,66.63
2022-10-17T17:17:55.609Z,66.98
2022-10-17T17:19:10.126Z,67.13
2022-10-17T17:20:11.468Z,67.36
2022-10-17T17:21:13.384Z,67.33
2022-10-17T17:22:14.790Z,67.44
2022-10-17T17:23:16.405Z,67.74
2022-10-17T17:24:21.054Z,68.52
2022-10-17T17:25:22.709Z,67.71
2022-10-17T17:26:25.631Z,67.49
2022-10-17T17:27:28.825Z,68.06
2022-10-17T17:28:31.961Z,67.76
2022-10-17T17:29:37.751Z,68.49
2022-10-17T17:30:39.088Z,68.66
